Time;durP1;ratioP1;P1;durP2;ratioP2;P2;SDS_P1;SDS_P2;PMS_P1;PMS_P2;Temp;Humidity;BMP_temperature;BMP_pressure;BME280_temperature;BME280_humidity;BME280_pressure;Samples;Min_cycle;Max_cycle;Signal;HPM_P1;HPM_P2
2021/09/01 00:00:25;;;;;;;7.12;2.40;;;;;;;13.86;95.51;98622.94;2235315;80;21016;-67
2021/09/01 00:03:28;;;;;;;4.58;1.70;;;;;;;13.86;95.54;98625.57;2215530;80;21483;-66
2021/09/01 00:06:29;;;;;;;5.85;1.65;;;;;;;13.87;96.29;98618.48;2236066;80;20976;-67
2021/09/01 00:09:31;;;;;;;4.97;1.70;;;;;;;13.85;95.55;98633.11;2235981;80;20987;-71
2021/09/01 00:12:32;;;;;;;4.78;1.62;;;;;;;13.83;95.89;98638.13;2235925;80;20996;-71
2021/09/01 00:15:33;;;;;;;3.10;1.23;;;;;;;13.76;96.51;98629.02;2235962;80;21290;-66
2021/09/01 00:18:35;;;;;;;3.15;1.27;;;;;;;13.74;96.08;98630.46;2235955;80;21487;-67
2021/09/01 00:21:36;;;;;;;1.97;1.00;;;;;;;13.74;96.30;98622.55;2235975;80;20964;-67
2021/09/01 00:24:38;;;;;;;3.50;1.20;;;;;;;13.74;96.69;98629.63;2235911;80;21526;-67
2021/09/01 00:27:39;;;;;;;4.35;0.65;;;;;;;13.73;95.99;98623.99;2236003;79;20932;-71
2021/09/01 00:30:40;;;;;;;2.77;0.80;;;;;;;13.72;97.00;98631.07;2235962;80;20961;-71
2021/09/01 00:33:42;;;;;;;2.83;0.88;;;;;;;13.69;96.72;98647.95;2236099;80;20988;-71
2021/09/01 00:36:43;;;;;;;2.07;0.67;;;;;;;13.65;96.91;98636.45;2235901;80;21000;-68
2021/09/01 00:39:45;;;;;;;1.83;0.90;;;;;;;13.60;97.62;98639.42;2235753;80;21034;-72
2021/09/01 00:42:46;;;;;;;3.75;1.25;;;;;;;13.59;97.24;98639.53;2235964;80;20972;-67
2021/09/01 00:45:47;;;;;;;2.17;1.10;;;;;;;13.56;97.93;98651.17;2235810;79;21515;-67
2021/09/01 00:48:49;;;;;;;2.30;0.80;;;;;;;13.56;96.88;98643.27;2235971;80;20972;-71
2021/09/01 00:51:51;;;;;;;8.03;0.98;;;;;;;13.54;97.36;98641.70;2235248;80;21051;-72
2021/09/01 00:54:52;;;;;;;2.30;1.13;;;;;;;13.48;97.94;98641.69;2235835;80;21030;-67
2021/09/01 00:57:54;;;;;;;3.20;1.23;;;;;;;13.48;97.94;98641.69;2235688;80;21667;-67
2021/09/01 01:03:58;;;;;;;4.83;1.30;;;;;;;13.47;97.84;98652.69;2215708;80;21687;-71
2021/09/01 01:07:00;;;;;;;4.37;1.50;;;;;;;13.43;98.10;98651.27;2235784;79;21016;-71
2021/09/01 01:10:01;;;;;;;3.47;1.73;;;;;;;13.42;97.88;98652.67;2235874;80;21479;-71
2021/09/01 01:13:02;;;;;;;6.77;1.40;;;;;;;13.41;97.26;98649.70;2236035;80;20967;-67
2021/09/01 01:16:04;;;;;;;5.28;1.75;;;;;;;13.40;97.77;98653.28;2235192;80;21569;-67
2021/09/01 01:19:06;;;;;;;4.25;1.70;;;;;;;13.36;98.10;98650.51;2235909;80;20987;-68
2021/09/01 01:22:07;;;;;;;4.60;2.00;;;;;;;13.34;97.64;98645.33;2235732;79;20920;-68
2021/09/01 01:25:08;;;;;;;5.33;1.70;;;;;;;13.34;97.69;98655.86;2235794;79;20960;-68
2021/09/01 01:28:10;;;;;;;5.08;2.33;;;;;;;13.33;97.90;98644.95;2235666;80;20960;-67
2021/09/01 01:31:11;;;;;;;6.63;2.27;;;;;;;13.30;98.15;98665.80;2235662;80;21050;-69
2021/09/01 01:34:13;;;;;;;5.27;1.97;;;;;;;13.29;98.31;98656.70;2235534;80;21107;-67
2021/09/01 01:37:14;;;;;;;6.28;2.00;;;;;;;13.30;98.23;98657.90;2235785;80;21616;-68
2021/09/01 01:40:16;;;;;;;5.30;2.40;;;;;;;13.30;98.16;98656.59;2235682;80;20972;-67
2021/09/01 01:43:18;;;;;;;8.80;2.27;;;;;;;13.30;98.21;98660.53;2235183;80;21583;-67
2021/09/01 01:46:19;;;;;;;8.10;2.12;;;;;;;13.30;97.68;98672.39;2231966;79;21071;-66
2021/09/01 01:49:21;;;;;;;7.37;2.30;;;;;;;13.31;97.74;98679.31;2232268;80;20940;-71
2021/09/01 01:52:22;;;;;;;9.40;2.43;;;;;;;13.33;97.35;98672.61;2232404;80;20957;-71
2021/09/01 01:55:24;;;;;;;9.90;2.60;;;;;;;13.32;97.56;98674.42;2232268;80;20959;-68
2021/09/01 01:58:25;;;;;;;12.58;3.22;;;;;;;13.31;97.56;98676.68;2231780;80;21557;-67
2021/09/01 02:01:27;;;;;;;10.05;2.62;;;;;;;13.31;97.38;98679.80;2231654;79;21573;-67
2021/09/01 02:04:29;;;;;;;9.00;2.60;;;;;;;13.30;97.58;98678.97;2232252;80;20960;-67
2021/09/01 02:07:32;;;;;;;6.53;2.20;;;;;;;13.30;97.72;98678.11;2232128;80;21008;-66
2021/09/01 02:10:33;;;;;;;11.55;2.80;;;;;;;13.28;97.97;98683.50;2231906;80;21350;-67
2021/09/01 02:13:35;;;;;;;9.43;2.22;;;;;;;13.25;98.07;98686.85;2232158;80;21439;-67
2021/09/01 02:16:36;;;;;;;11.00;2.90;;;;;;;13.22;98.44;98685.77;2232141;79;21027;-67
2021/09/01 02:19:38;;;;;;;7.53;2.50;;;;;;;13.21;98.33;98680.13;2232134;80;21019;-67
2021/09/01 02:22:39;;;;;;;6.63;2.23;;;;;;;13.20;98.26;98691.61;2232276;80;20995;-72
2021/09/01 02:25:40;;;;;;;7.28;2.20;;;;;;;13.22;97.90;98693.67;2232160;80;20976;-68
2021/09/01 02:28:42;;;;;;;5.43;2.20;;;;;;;13.24;98.08;98697.02;2232150;80;21046;-72
2021/09/01 02:31:43;;;;;;;8.30;2.57;;;;;;;13.23;98.03;98695.33;2232189;79;20960;-67
2021/09/01 02:34:45;;;;;;;7.63;2.53;;;;;;;13.24;98.02;98703.59;2232108;80;21497;-67
2021/09/01 02:37:51;;;;;;;6.47;2.33;;;;;;;13.24;97.70;98705.74;2232117;80;21008;-67
2021/09/01 02:40:49;;;;;;;7.22;2.42;;;;;;;13.24;97.80;98704.92;2212480;80;20972;-67
2021/09/01 02:43:51;;;;;;;5.75;2.20;;;;;;;13.24;98.19;98715.45;2232322;80;21506;-66
2021/09/01 02:46:52;;;;;;;7.85;2.50;;;;;;;13.24;98.00;98710.19;2232291;79;20944;-67
2021/09/01 02:49:54;;;;;;;9.57;2.60;;;;;;;13.27;97.77;98706.00;2232292;80;21766;-70
2021/09/01 02:52:55;;;;;;;5.50;2.43;;;;;;;13.27;97.80;98706.00;2232489;80;20964;-67
2021/09/01 02:55:56;;;;;;;6.37;2.37;;;;;;;13.29;98.05;98716.80;2232136;80;20999;-67
2021/09/01 02:58:58;;;;;;;6.85;2.50;;;;;;;13.26;97.88;98722.75;2232369;80;20983;-71
2021/09/01 03:02:00;;;;;;;7.85;2.52;;;;;;;13.26;98.13;98723.61;2231908;80;21004;-67
2021/09/01 03:05:01;;;;;;;6.80;2.33;;;;;;;13.26;97.85;98720.97;2232356;80;20964;-66
2021/09/01 03:08:03;;;;;;;9.80;2.10;;;;;;;13.26;97.86;98724.06;2232238;80;20971;-66
2021/09/01 03:11:05;;;;;;;6.50;1.90;;;;;;;13.26;98.59;98729.33;2231641;80;20992;-67
2021/09/01 03:14:06;;;;;;;7.47;2.25;;;;;;;13.25;98.53;98728.99;2232131;79;20999;-67
2021/09/01 03:17:07;;;;;;;6.67;2.00;;;;;;;13.21;98.47;98723.09;2232086;80;21455;-66
2021/09/01 03:20:09;;;;;;;4.93;1.70;;;;;;;13.23;98.35;98726.47;2232312;80;21003;-67
2021/09/01 03:23:10;;;;;;;5.07;1.83;;;;;;;13.22;98.49;98731.86;2232294;80;21600;-71
2021/09/01 03:26:12;;;;;;;4.17;1.80;;;;;;;13.21;98.57;98722.27;2232269;80;21008;-71
2021/09/01 03:29:13;;;;;;;5.75;2.00;;;;;;;13.21;98.47;98731.48;2232314;80;21044;-67
2021/09/01 03:32:14;;;;;;;5.43;1.90;;;;;;;13.20;98.49;98725.36;2232442;80;21015;-67
2021/09/01 03:35:16;;;;;;;7.50;2.40;;;;;;;13.20;98.23;98733.25;2232263;80;20968;-71
2021/09/01 03:38:17;;;;;;;8.87;2.70;;;;;;;13.19;98.67;98742.13;2232255;80;21466;-67
2021/09/01 03:41:19;;;;;;;6.60;2.93;;;;;;;13.18;98.47;98738.64;2232329;80;20912;-72
2021/09/01 03:44:20;;;;;;;10.60;3.35;;;;;;;13.14;98.89;98746.88;2232490;80;21491;-71
2021/09/01 03:47:22;;;;;;;13.17;3.90;;;;;;;13.12;98.65;98754.89;2235899;80;20996;-72
2021/09/01 03:50:24;;;;;;;12.82;3.85;;;;;;;13.10;98.96;98744.96;2235374;80;21550;-67
2021/09/01 03:53:25;;;;;;;11.97;3.92;;;;;;;13.08;99.14;98752.11;2235899;80;20953;-67
2021/09/01 03:56:27;;;;;;;14.80;4.12;;;;;;;13.06;99.37;98747.91;2235722;80;20999;-67
2021/09/01 03:59:28;;;;;;;14.13;4.17;;;;;;;13.03;99.09;98762.16;2235858;80;20967;-67
2021/09/01 04:02:29;;;;;;;16.10;4.30;;;;;;;13.01;99.03;98764.05;2235417;80;21015;-71
2021/09/01 04:05:31;;;;;;;11.07;3.70;;;;;;;13.00;98.88;98767.16;2235719;80;21467;-72
2021/09/01 04:08:32;;;;;;;14.80;4.30;;;;;;;13.03;98.85;98770.52;2235766;80;20937;-72
2021/09/01 04:11:34;;;;;;;14.53;4.42;;;;;;;13.05;98.53;98773.89;2235763;80;21612;-67
2021/09/01 04:14:35;;;;;;;16.47;4.50;;;;;;;13.04;98.74;98777.47;2235839;80;20975;-67
2021/09/01 04:17:36;;;;;;;15.37;4.30;;;;;;;13.00;98.80;98778.15;2235721;80;20980;-67
2021/09/01 04:20:38;;;;;;;13.80;3.77;;;;;;;13.00;98.94;98791.31;2235856;79;21007;-67
2021/09/01 04:23:39;;;;;;;13.03;3.70;;;;;;;12.98;99.14;98778.27;2235764;80;20972;-67
2021/09/01 04:26:41;;;;;;;12.63;3.95;;;;;;;12.97;98.73;98784.50;2235897;80;20951;-70
2021/09/01 04:29:42;;;;;;;13.97;3.70;;;;;;;12.98;99.06;98794.55;2235744;80;21011;-72
2021/09/01 04:32:44;;;;;;;12.47;3.40;;;;;;;12.99;98.87;98793.60;2235714;80;21462;-66
2021/09/01 04:35:45;;;;;;;12.97;3.67;;;;;;;13.02;98.66;98792.06;2235726;80;20968;-71
2021/09/01 04:38:46;;;;;;;11.67;3.80;;;;;;;13.05;98.60;98813.39;2235689;80;21507;-71
2021/09/01 04:41:48;;;;;;;16.50;4.30;;;;;;;13.04;98.50;98800.68;2235722;80;20998;-72
2021/09/01 04:44:49;;;;;;;15.43;3.50;;;;;;;13.03;98.34;98812.64;2235502;79;21026;-71
2021/09/01 04:47:51;;;;;;;13.43;3.83;;;;;;;13.02;98.49;98813.13;2235964;80;20917;-70
2021/09/01 04:50:52;;;;;;;12.90;3.75;;;;;;;13.00;98.54;98811.92;2235713;80;20998;-67
2021/09/01 04:53:54;;;;;;;13.70;3.98;;;;;;;13.03;98.58;98823.17;2235837;80;20964;-66
2021/09/01 04:56:55;;;;;;;13.45;3.80;;;;;;;13.01;98.08;98828.55;2235691;80;20992;-67
2021/09/01 04:59:56;;;;;;;17.50;4.20;;;;;;;13.01;98.00;98825.91;2235725;80;21513;-71
2021/09/01 05:02:58;;;;;;;15.43;4.03;;;;;;;13.02;98.01;98830.23;2235362;80;21047;-71
2021/09/01 05:05:59;;;;;;;14.73;4.37;;;;;;;13.05;98.03;98833.14;2235656;80;20982;-72
2021/09/01 05:09:01;;;;;;;16.00;4.58;;;;;;;13.04;97.80;98836.22;2235833;80;20984;-72
2021/09/01 05:12:02;;;;;;;12.98;3.98;;;;;;;13.04;97.83;98829.64;2235721;80;21023;-71
2021/09/01 05:15:03;;;;;;;15.30;4.25;;;;;;;13.06;97.79;98831.70;2235901;80;21002;-66
2021/09/01 05:18:05;;;;;;;14.00;4.23;;;;;;;13.06;98.19;98841.38;2235643;80;20992;-71
2021/09/01 05:21:06;;;;;;;13.17;4.00;;;;;;;13.05;97.93;98848.45;2235681;80;21008;-68
2021/09/01 05:24:08;;;;;;;13.98;3.95;;;;;;;13.03;98.01;98844.23;2235708;79;21058;-67
2021/09/01 05:27:09;;;;;;;14.98;4.00;;;;;;;13.04;98.05;98844.13;2235673;80;21499;-67
2021/09/01 05:30:11;;;;;;;14.70;3.90;;;;;;;13.07;97.94;98852.28;2235897;80;20968;-67
2021/09/01 05:33:12;;;;;;;15.40;4.03;;;;;;;13.10;97.96;98848.11;2235668;80;20960;-68
2021/09/01 05:36:13;;;;;;;12.27;3.67;;;;;;;13.13;97.65;98847.44;2235731;80;20964;-70
2021/09/01 05:39:15;;;;;;;9.55;3.30;;;;;;;13.17;97.82;98851.54;2235635;80;20995;-71
2021/09/01 05:42:16;;;;;;;9.50;3.20;;;;;;;13.18;97.40;98855.00;2235214;80;21565;-67
2021/09/01 05:45:18;;;;;;;12.23;3.53;;;;;;;13.21;97.78;98849.51;2235256;79;21067;-71
2021/09/01 05:48:19;;;;;;;12.17;3.33;;;;;;;13.23;97.56;98855.98;2232178;80;21530;-71
2021/09/01 05:51:20;;;;;;;8.90;3.03;;;;;;;13.24;97.39;98868.20;2232289;80;20960;-72
2021/09/01 05:54:22;;;;;;;7.90;2.87;;;;;;;13.23;97.89;98865.20;2232140;80;20987;-72
2021/09/01 05:57:23;;;;;;;9.03;2.87;;;;;;;13.22;97.82;98867.00;2232318;79;20952;-70
2021/09/01 06:00:25;;;;;;;8.95;2.85;;;;;;;13.22;97.69;98862.23;2232167;80;20972;-67
2021/09/01 06:03:26;;;;;;;14.43;3.33;;;;;;;13.22;97.74;98867.00;2231843;79;21445;-71
2021/09/01 06:06:28;;;;;;;6.47;2.57;;;;;;;13.24;97.92;98874.80;2232107;80;21019;-72
2021/09/01 06:09:29;;;;;;;6.58;2.58;;;;;;;13.23;97.82;98877.05;2231993;80;21510;-67
2021/09/01 06:12:31;;;;;;;9.43;2.90;;;;;;;13.26;98.17;98879.01;2232230;80;20948;-71
2021/09/01 06:15:32;;;;;;;9.80;3.10;;;;;;;13.28;98.10;98865.73;2232121;80;21450;-72
2021/09/01 06:18:34;;;;;;;8.57;2.80;;;;;;;13.30;98.13;98878.30;2232144;80;21039;-71
2021/09/01 06:21:35;;;;;;;8.00;2.45;;;;;;;13.30;98.16;98883.11;2232140;80;21312;-72
2021/09/01 06:24:37;;;;;;;9.00;2.80;;;;;;;13.35;98.44;98872.27;2232286;79;20937;-71
2021/09/01 06:27:38;;;;;;;8.30;2.90;;;;;;;13.38;98.11;98886.53;2232174;79;20956;-68
2021/09/01 06:30:39;;;;;;;11.70;3.07;;;;;;;13.47;98.06;98881.91;2232143;80;21498;-72
2021/09/01 06:33:41;;;;;;;8.10;2.87;;;;;;;13.52;97.64;98885.55;2232097;80;20969;-68
2021/09/01 06:36:42;;;;;;;8.30;2.77;;;;;;;13.55;97.44;98886.64;2231821;80;21499;-68
2021/09/01 06:39:44;;;;;;;7.97;2.57;;;;;;;13.60;97.37;98894.20;2232306;79;21245;-68
2021/09/01 06:42:46;;;;;;;9.35;2.92;;;;;;;13.60;97.35;98901.63;2232053;80;21527;-70
2021/09/01 06:45:48;;;;;;;7.90;3.10;;;;;;;13.61;97.09;98905.95;2232126;79;20996;-71
2021/09/01 06:48:49;;;;;;;5.83;2.50;;;;;;;13.61;97.26;98908.59;2232023;80;21474;-71
2021/09/01 06:51:51;;;;;;;8.25;3.00;;;;;;;13.59;97.13;98921.05;2232132;80;20958;-71
2021/09/01 06:54:52;;;;;;;8.57;3.00;;;;;;;13.61;97.13;98929.67;2232106;80;21459;-67
2021/09/01 06:57:54;;;;;;;9.87;3.30;;;;;;;13.64;96.32;98915.44;2232314;80;21044;-70
2021/09/01 07:00:56;;;;;;;11.03;3.37;;;;;;;13.67;96.17;98930.54;2231807;80;21004;-67
2021/09/01 07:03:58;;;;;;;12.28;3.58;;;;;;;13.69;96.36;98940.52;2231669;80;21114;-67
2021/09/01 07:06:59;;;;;;;9.87;3.40;;;;;;;13.71;96.17;98939.57;2232151;80;21455;-71
2021/09/01 07:10:01;;;;;;;12.60;4.13;;;;;;;13.75;96.10;98945.82;2232355;80;20959;-71
2021/09/01 07:13:02;;;;;;;15.23;4.40;;;;;;;13.88;95.57;98950.19;2232122;80;20937;-72
2021/09/01 07:16:03;;;;;;;12.80;4.30;;;;;;;13.98;94.74;98952.55;2232261;79;20964;-67
2021/09/01 07:19:05;;;;;;;15.63;4.65;;;;;;;14.02;94.20;98954.84;2232029;80;21000;-72
2021/09/01 07:22:06;;;;;;;17.73;5.33;;;;;;;14.12;93.47;98965.56;2232098;80;21466;-70
2021/09/01 07:25:08;;;;;;;17.43;5.50;;;;;;;14.29;92.67;98976.16;2232108;80;20925;-67
2021/09/01 07:28:09;;;;;;;15.23;5.00;;;;;;;14.40;92.32;98973.23;2232132;80;21451;-67
2021/09/01 07:31:11;;;;;;;17.80;5.47;;;;;;;14.46;91.73;98988.59;2231959;80;21003;-67
2021/09/01 07:34:12;;;;;;;16.60;5.00;;;;;;;14.45;91.64;98988.22;2232059;80;20972;-67
2021/09/01 07:37:14;;;;;;;17.73;5.87;;;;;;;14.51;92.64;98989.94;2232185;80;21019;-71
2021/09/01 07:40:15;;;;;;;18.10;5.92;;;;;;;14.55;91.44;98992.72;2232014;80;20961;-67
2021/09/01 07:43:17;;;;;;;19.43;6.53;;;;;;;14.53;91.51;99001.70;2232118;79;21523;-71
2021/09/01 07:46:18;;;;;;;19.27;6.72;;;;;;;14.47;90.94;98997.72;2233339;80;21083;-71
2021/09/01 07:49:20;;;;;;;20.57;7.30;;;;;;;14.35;91.17;98999.48;2235557;80;21562;-72
2021/09/01 07:52:21;;;;;;;22.60;7.13;;;;;;;14.26;91.00;99021.24;2235577;80;21067;-67
2021/09/01 07:55:23;;;;;;;21.73;8.03;;;;;;;14.18;92.00;99019.17;2235558;80;21671;-71
2021/09/01 07:58:24;;;;;;;23.77;8.70;;;;;;;14.14;92.40;99022.98;2235543;80;21107;-70
2021/09/01 08:01:26;;;;;;;22.42;8.83;;;;;;;14.17;91.94;99037.27;2234966;80;21554;-71
2021/09/01 08:04:28;;;;;;;24.73;8.87;;;;;;;14.20;91.54;99028.30;2235469;80;21056;-67
2021/09/01 08:07:30;;;;;;;22.37;8.90;;;;;;;14.23;91.68;99034.66;2235610;80;20944;-72
2021/09/01 08:10:31;;;;;;;23.30;9.47;;;;;;;14.32;91.51;99022.13;2235783;79;20960;-72
2021/09/01 08:13:33;;;;;;;23.87;9.27;;;;;;;14.46;91.16;99045.34;2235747;80;21019;-71
2021/09/01 08:16:34;;;;;;;24.67;9.80;;;;;;;14.52;90.19;99047.52;2235864;80;20976;-67
2021/09/01 08:19:36;;;;;;;22.63;9.10;;;;;;;14.53;91.32;99041.29;2235739;80;21177;-67
2021/09/01 08:22:37;;;;;;;23.77;9.47;;;;;;;14.58;91.15;99047.54;2235732;80;21458;-68
2021/09/01 08:25:38;;;;;;;22.63;9.10;;;;;;;14.63;90.74;99048.09;2235709;80;20933;-67
2021/09/01 08:28:40;;;;;;;25.13;9.60;;;;;;;14.82;90.70;99054.14;2235732;79;21531;-67
2021/09/01 08:31:41;;;;;;;23.18;8.48;;;;;;;14.91;89.90;99052.12;2235770;80;20960;-67
2021/09/01 08:34:45;;;;;;;24.97;8.73;;;;;;;14.90;89.47;99062.34;2235741;80;20999;-67
2021/09/01 08:37:46;;;;;;;22.32;8.30;;;;;;;14.92;90.05;99059.58;2235564;80;21495;-71
2021/09/01 08:40:48;;;;;;;23.57;8.27;;;;;;;14.91;89.23;99058.72;2235962;80;20967;-68
2021/09/01 08:43:50;;;;;;;22.55;8.10;;;;;;;14.94;89.46;99066.90;2235599;80;21023;-72
2021/09/01 08:46:51;;;;;;;23.07;8.07;;;;;;;14.86;88.56;99067.48;2235666;79;21004;-66
2021/09/01 08:49:53;;;;;;;23.27;7.97;;;;;;;14.84;88.70;99078.63;2235617;80;20972;-71
2021/09/01 08:52:54;;;;;;;24.20;8.80;;;;;;;14.83;87.63;99081.75;2235363;80;21605;-66
2021/09/01 08:55:56;;;;;;;22.07;7.93;;;;;;;14.83;88.62;99088.84;2235598;80;21231;-66
2021/09/01 08:58:57;;;;;;;25.30;8.33;;;;;;;14.88;88.37;99079.63;2235699;80;21026;-67
2021/09/01 09:01:58;;;;;;;23.20;8.03;;;;;;;14.94;87.88;99087.57;2235832;80;20995;-72
2021/09/01 09:05:00;;;;;;;25.40;7.80;;;;;;;15.04;88.13;99087.23;2235665;80;20967;-66
2021/09/01 09:08:01;;;;;;;23.83;8.30;;;;;;;15.08;86.87;99101.03;2235822;80;20970;-67
2021/09/01 09:11:03;;;;;;;27.73;9.47;;;;;;;15.13;87.46;99094.08;2235746;79;20968;-72
2021/09/01 09:14:04;;;;;;;23.93;7.57;;;;;;;15.33;87.55;99107.96;2235644;80;21538;-66
2021/09/01 09:17:05;;;;;;;21.40;7.37;;;;;;;15.48;86.37;99106.42;2235657;80;21039;-71
2021/09/01 09:20:07;;;;;;;22.20;7.55;;;;;;;15.59;85.47;99111.23;2235440;80;21570;-67
2021/09/01 09:23:09;;;;;;;21.87;6.97;;;;;;;15.82;85.49;99115.25;2235341;80;21059;-67
2021/09/01 09:26:10;;;;;;;20.17;6.90;;;;;;;15.96;84.96;99106.25;2235638;80;21016;-67
2021/09/01 09:29:12;;;;;;;19.87;6.77;;;;;;;16.13;84.42;99110.67;2235808;80;20967;-67
2021/09/01 09:32:13;;;;;;;19.95;6.40;;;;;;;16.16;83.46;99117.03;2235587;80;21122;-67
2021/09/01 09:35:14;;;;;;;21.83;7.13;;;;;;;16.08;83.31;99117.66;2235624;80;21557;-66
2021/09/01 09:38:16;;;;;;;21.57;6.90;;;;;;;16.07;83.31;99118.61;2235749;80;20983;-72
2021/09/01 09:41:18;;;;;;;19.57;6.62;;;;;;;16.08;82.35;99134.36;2235552;80;21428;-67
2021/09/01 09:44:19;;;;;;;24.17;7.53;;;;;;;16.07;82.80;99138.45;2235803;80;20964;-66
2021/09/01 09:47:21;;;;;;;19.92;6.58;;;;;;;16.17;83.08;99128.81;2235200;79;21110;-66
2021/09/01 09:50:22;;;;;;;21.57;6.90;;;;;;;16.30;81.47;99138.44;2235808;80;20967;-67
2021/09/01 09:53:24;;;;;;;21.12;7.12;;;;;;;16.47;82.70;99135.28;2235531;80;21040;-67
2021/09/01 09:56:25;;;;;;;20.03;6.60;;;;;;;16.54;80.10;99131.17;2235771;80;20975;-67
2021/09/01 09:59:27;;;;;;;21.30;6.73;;;;;;;16.67;81.07;99130.19;2235605;80;20948;-66
2021/09/01 10:02:29;;;;;;;21.80;6.70;;;;;;;16.69;79.15;99127.74;2235176;80;21836;-66
2021/09/01 10:05:30;;;;;;;19.62;6.17;;;;;;;16.90;79.28;99135.78;2235691;80;20999;-67
2021/09/01 10:08:32;;;;;;;18.87;6.20;;;;;;;16.99;78.20;99134.17;2235635;80;21062;-66
2021/09/01 10:11:33;;;;;;;20.12;6.40;;;;;;;17.00;78.82;99139.01;2235325;80;20972;-66
2021/09/01 10:14:34;;;;;;;21.20;6.90;;;;;;;17.07;79.07;99150.78;2235464;80;20987;-67
2021/09/01 10:17:38;;;;;;;17.73;6.00;;;;;;;17.09;73.72;99164.73;2235618;80;21562;-66
2021/09/01 10:20:42;;;;;;;20.00;5.65;;;;;;;16.97;76.32;99138.28;2215727;80;20996;-66
2021/09/01 10:23:43;;;;;;;20.08;6.85;;;;;;;16.83;77.58;99156.26;2215842;80;20960;-67
2021/09/01 10:26:44;;;;;;;20.70;5.75;;;;;;;16.59;76.60;99155.94;2235729;80;20999;-67
2021/09/01 10:29:46;;;;;;;18.57;5.60;;;;;;;16.51;76.52;99152.60;2235828;80;20996;-67
2021/09/01 10:32:47;;;;;;;20.55;5.95;;;;;;;16.52;77.11;99155.62;2235643;80;21255;-67
2021/09/01 10:35:49;;;;;;;21.23;5.43;;;;;;;16.68;76.40;99150.38;2235732;80;20944;-66
2021/09/01 10:38:50;;;;;;;18.73;6.03;;;;;;;16.79;75.04;99158.30;2235704;80;21185;-71
2021/09/01 10:41:51;;;;;;;19.77;6.30;;;;;;;16.91;75.72;99156.02;2235534;80;21475;-67
2021/09/01 10:44:53;;;;;;;20.67;6.23;;;;;;;17.11;75.31;99167.62;2235723;80;20963;-66
2021/09/01 10:47:54;;;;;;;20.77;5.87;;;;;;;17.27;74.91;99166.35;2233241;79;21683;-67
2021/09/01 10:50:56;;;;;;;20.10;5.67;;;;;;;17.38;74.31;99157.48;2232356;80;20971;-66
2021/09/01 10:53:57;;;;;;;19.60;6.03;;;;;;;17.61;73.66;99172.31;2232114;80;20972;-66
2021/09/01 10:56:59;;;;;;;20.12;6.00;;;;;;;17.83;73.53;99167.83;2232061;80;20991;-66
2021/09/01 11:00:00;;;;;;;21.57;5.95;;;;;;;17.82;70.11;99178.07;2232090;80;20969;-67
2021/09/01 11:03:02;;;;;;;18.65;5.55;;;;;;;18.06;69.50;99172.97;2231897;80;21483;-67
2021/09/01 11:06:03;;;;;;;18.43;5.80;;;;;;;18.39;69.72;99173.18;2232317;80;20959;-68
2021/09/01 11:09:05;;;;;;;21.05;5.67;;;;;;;18.49;69.81;99171.39;2232007;80;21212;-67
2021/09/01 11:12:07;;;;;;;20.25;5.90;;;;;;;18.50;65.27;99182.38;2232086;80;20996;-66
2021/09/01 11:15:09;;;;;;;17.42;5.25;;;;;;;18.15;68.48;99176.16;2232044;80;20984;-67
2021/09/01 11:18:10;;;;;;;;;;;;;;;17.58;67.40;99193.76;2234695;80;21038;-66
2021/09/01 11:21:12;;;;;;;17.45;5.53;;;;;;;17.09;69.52;99209.78;2231829;80;20107;-67
2021/09/01 11:24:13;;;;;;;18.10;5.43;;;;;;;17.00;70.89;99196.80;2232290;80;20960;-66
2021/09/01 11:27:15;;;;;;;19.20;5.20;;;;;;;17.60;68.29;99206.42;2232069;80;21385;-72
2021/09/01 11:30:16;;;;;;;18.70;5.43;;;;;;;17.60;68.29;99206.42;2232109;79;21293;-66
2021/09/01 11:33:18;;;;;;;19.85;5.60;;;;;;;17.72;69.18;99214.32;2231861;80;21271;-67
2021/09/01 11:36:19;;;;;;;21.70;5.37;;;;;;;18.28;66.59;99215.77;2231646;79;21012;-72
2021/09/01 11:39:21;;;;;;;18.82;5.28;;;;;;;18.40;66.03;99214.67;2231907;79;21003;-67
2021/09/01 11:42:22;;;;;;;16.42;5.45;;;;;;;18.74;66.94;99206.89;2232117;80;21032;-68
2021/09/01 11:45:24;;;;;;;17.98;5.60;;;;;;;19.12;64.20;99210.59;2232126;80;21462;-67
2021/09/01 11:48:25;;;;;;;18.73;5.92;;;;;;;18.86;65.66;99211.09;2234634;79;21038;-67
2021/09/01 11:51:27;;;;;;;17.07;5.00;;;;;;;18.76;62.97;99216.88;2235634;80;21458;-68
2021/09/01 11:54:28;;;;;;;18.87;4.90;;;;;;;19.02;63.00;99206.59;2235711;80;21249;-67
2021/09/01 11:57:29;;;;;;;15.78;4.70;;;;;;;19.39;63.46;99200.59;2235601;80;20999;-71
2021/09/01 12:00:31;;;;;;;15.98;5.00;;;;;;;19.82;63.93;99206.45;2235748;80;21007;-67
2021/09/01 12:03:32;;;;;;;18.20;5.22;;;;;;;19.95;58.36;99229.59;2235603;80;20960;-67
2021/09/01 12:06:34;;;;;;;17.70;5.05;;;;;;;19.95;60.76;99206.14;2235545;80;21522;-67
2021/09/01 12:09:36;;;;;;;16.82;5.08;;;;;;;20.37;60.38;99205.70;2235630;80;20971;-67
2021/09/01 12:12:37;;;;;;;19.55;5.60;;;;;;;20.33;56.27;99190.52;2235561;80;21474;-68
2021/09/01 12:15:39;;;;;;;19.30;5.75;;;;;;;20.02;57.28;99192.59;2235798;80;21023;-68
2021/09/01 12:18:40;;;;;;;16.52;4.90;;;;;;;19.69;56.33;99205.39;2235590;80;20991;-67
2021/09/01 12:21:42;;;;;;;19.77;5.08;;;;;;;19.48;59.28;99214.86;2235858;80;21002;-67
2021/09/01 12:24:43;;;;;;;15.95;4.58;;;;;;;19.45;58.33;99213.35;2235602;79;20932;-67
2021/09/01 12:27:44;;;;;;;22.02;5.33;;;;;;;19.35;55.39;99217.81;2235602;79;21482;-67
2021/09/01 12:30:46;;;;;;;17.15;4.90;;;;;;;19.24;57.09;99219.27;2235601;80;21027;-72
2021/09/01 12:33:47;;;;;;;18.80;5.42;;;;;;;18.98;57.69;99221.17;2235210;80;21510;-67
2021/09/01 12:36:49;;;;;;;17.52;4.78;;;;;;;18.55;58.31;99232.42;2235716;80;20955;-67
2021/09/01 12:39:50;;;;;;;18.52;5.10;;;;;;;18.20;59.72;99242.12;2235609;80;20957;-72
2021/09/01 12:42:52;;;;;;;16.85;5.00;;;;;;;17.91;61.05;99227.72;2235717;80;20952;-72
2021/09/01 12:45:53;;;;;;;16.57;4.83;;;;;;;17.61;61.32;99251.02;2235542;80;20971;-67
2021/09/01 12:48:54;;;;;;;17.73;5.03;;;;;;;17.29;62.41;99242.60;2232545;79;21537;-67
2021/09/01 12:51:56;;;;;;;18.43;5.20;;;;;;;17.06;63.69;99244.48;2232312;80;21180;-67
2021/09/01 12:54:57;;;;;;;17.07;4.87;;;;;;;16.91;64.69;99239.47;2232193;80;21232;-67
2021/09/01 12:57:59;;;;;;;20.77;5.53;;;;;;;16.82;65.88;99240.66;2232220;80;21071;-67
2021/09/01 13:01:00;;;;;;;18.25;5.62;;;;;;;16.73;65.83;99247.04;2231882;79;20972;-67
2021/09/01 13:04:02;;;;;;;19.15;5.35;;;;;;;16.65;66.65;99263.19;2231684;80;21606;-67
2021/09/01 13:07:04;;;;;;;17.73;5.33;;;;;;;16.53;67.65;99271.13;2232240;80;20987;-67
2021/09/01 13:10:06;;;;;;;17.80;5.20;;;;;;;16.38;68.24;99259.95;2232196;80;21525;-67
2021/09/01 13:13:07;;;;;;;18.70;5.30;;;;;;;16.25;69.59;99269.33;2232142;80;21007;-67
2021/09/01 13:16:08;;;;;;;15.45;4.78;;;;;;;16.23;70.13;99272.59;2232101;80;21498;-66
2021/09/01 13:19:10;;;;;;;17.27;5.00;;;;;;;16.19;70.69;99271.59;2232277;80;21019;-67
2021/09/01 13:22:11;;;;;;;17.63;5.07;;;;;;;16.23;71.51;99273.91;2232176;80;20976;-67
2021/09/01 13:25:13;;;;;;;17.33;5.43;;;;;;;16.26;71.84;99266.19;2232254;80;20955;-72
2021/09/01 13:28:14;;;;;;;18.17;5.27;;;;;;;16.32;71.36;99269.70;2232122;79;21011;-67
2021/09/01 13:31:15;;;;;;;19.50;5.53;;;;;;;16.52;71.36;99278.73;2232049;80;21458;-68
2021/09/01 13:34:17;;;;;;;18.00;5.17;;;;;;;16.63;71.08;99268.11;2232248;80;21017;-67
2021/09/01 13:37:18;;;;;;;18.03;5.03;;;;;;;16.80;71.34;99269.92;2232140;80;21652;-67
2021/09/01 13:40:20;;;;;;;15.53;4.57;;;;;;;17.03;71.09;99264.13;2232307;80;20948;-67
2021/09/01 13:43:23;;;;;;;17.10;4.77;;;;;;;17.28;69.81;99278.02;2231831;79;21260;-67
2021/09/01 13:46:27;;;;;;;15.78;4.78;;;;;;;17.63;69.31;99270.31;2231941;80;20980;-67
2021/09/01 13:49:27;;;;;;;16.45;4.55;;;;;;;18.07;68.96;99275.02;2161429;82;21030;-68
2021/09/01 13:52:29;;;;;;;17.35;4.87;;;;;;;18.44;67.93;99282.98;2173927;81;21639;-67
2021/09/01 13:55:30;;;;;;;17.10;4.80;;;;;;;18.87;66.82;99254.83;2173740;81;21081;-67
2021/09/01 13:58:32;;;;;;;18.80;4.80;;;;;;;19.22;64.50;99263.28;2173916;81;21114;-67
2021/09/01 14:01:33;;;;;;;16.90;4.90;;;;;;;19.33;64.08;99253.85;2174068;81;21047;-67
2021/09/01 14:04:35;;;;;;;16.12;4.45;;;;;;;19.36;64.32;99247.42;2173901;81;21053;-67
2021/09/01 14:07:37;;;;;;;16.95;4.40;;;;;;;19.40;64.24;99247.50;2173490;82;21096;-66
2021/09/01 14:10:38;;;;;;;14.87;4.08;;;;;;;19.71;63.61;99254.84;2174042;81;21453;-72